createdAt,value
2019-06-26T00:02:19.955Z,15.23
2019-06-26T00:04:50.691Z,13.27
2019-06-26T00:07:19.187Z,14.30
2019-06-26T00:09:47.644Z,14.87
2019-06-26T00:12:16.093Z,13.90
2019-06-26T00:14:44.580Z,14.80
2019-06-26T00:17:14.528Z,15.53
2019-06-26T00:19:42.974Z,14.27
2019-06-26T00:22:11.486Z,14.97
2019-06-26T00:24:41.405Z,15.13
2019-06-26T00:27:11.598Z,15.40
2019-06-26T00:29:41.469Z,15.47
2019-06-26T00:32:11.382Z,14.00
2019-06-26T00:34:41.303Z,14.50
2019-06-26T00:37:10.181Z,13.73
2019-06-26T00:39:40.116Z,14.03
2019-06-26T00:42:10.728Z,14.53
2019-06-26T00:44:39.603Z,14.90
2019-06-26T00:47:10.187Z,13.77
2019-06-26T00:49:38.977Z,14.90
2019-06-26T00:52:08.872Z,13.77
2019-06-26T00:54:39.499Z,14.40
2019-06-26T00:57:10.109Z,13.73
2019-06-26T00:59:40.777Z,13.70
2019-06-26T01:02:10.691Z,14.83
2019-06-26T01:04:45.435Z,14.47
2019-06-26T01:07:15.479Z,15.83
2019-06-26T01:09:46.221Z,15.20
2019-06-26T01:12:17.025Z,14.23
2019-06-26T01:14:47.504Z,13.90
2019-06-26T01:17:17.445Z,14.10
2019-06-26T01:19:48.145Z,15.50
2019-06-26T01:22:19.816Z,15.37
2019-06-26T01:24:49.822Z,14.27
2019-06-26T01:27:20.292Z,15.07
2019-06-26T01:29:50.356Z,15.20
2019-06-26T01:32:20.476Z,13.57
2019-06-26T01:34:50.467Z,14.97
2019-06-26T01:37:20.358Z,15.80
2019-06-26T01:39:51.103Z,15.57
2019-06-26T01:42:20.871Z,14.50
2019-06-26T01:44:51.715Z,14.40
2019-06-26T01:47:22.130Z,15.30
2019-06-26T01:49:52.573Z,15.00
2019-06-26T01:52:23.370Z,15.77
2019-06-26T01:54:53.834Z,15.53
2019-06-26T01:57:23.724Z,14.03
2019-06-26T01:59:54.366Z,16.80
2019-06-26T02:02:24.936Z,14.07
2019-06-26T02:04:55.576Z,15.00
2019-06-26T02:07:25.573Z,16.40
2019-06-26T02:09:56.314Z,16.07
2019-06-26T02:12:30.130Z,14.90
2019-06-26T02:15:00.024Z,14.70
2019-06-26T02:17:30.798Z,15.47
2019-06-26T02:20:00.605Z,16.77
2019-06-26T02:22:31.176Z,16.20
2019-06-26T02:25:01.840Z,15.30
2019-06-26T02:27:32.533Z,15.20
2019-06-26T02:30:03.204Z,15.60
2019-06-26T02:32:33.169Z,16.33
2019-06-26T02:35:03.111Z,17.20
2019-06-26T02:37:31.978Z,15.80
2019-06-26T02:40:04.870Z,16.20
2019-06-26T02:42:37.560Z,16.43
2019-06-26T02:45:23.274Z,16.40
2019-06-26T02:48:01.890Z,16.50
2019-06-26T02:50:49.361Z,16.23
2019-06-26T02:53:18.234Z,16.47
2019-06-26T02:55:48.822Z,16.63
2019-06-26T02:58:19.568Z,16.20
2019-06-26T03:00:50.959Z,16.67
2019-06-26T03:03:21.737Z,16.73
2019-06-26T03:05:52.234Z,17.43
2019-06-26T03:08:22.035Z,16.80
2019-06-26T03:10:52.825Z,17.50
2019-06-26T03:13:22.668Z,16.10
2019-06-26T03:15:52.510Z,16.67
2019-06-26T03:18:22.557Z,16.63
2019-06-26T03:20:57.044Z,16.87
2019-06-26T03:23:27.364Z,17.30
2019-06-26T03:25:57.235Z,15.30
2019-06-26T03:28:27.886Z,15.40
2019-06-26T03:30:57.822Z,15.63
2019-06-26T03:33:27.684Z,16.70
2019-06-26T03:35:58.298Z,17.47
2019-06-26T03:38:28.268Z,16.30
2019-06-26T03:40:59.041Z,16.17
2019-06-26T03:43:28.602Z,17.97
2019-06-26T03:45:59.394Z,16.77
2019-06-26T03:48:29.770Z,16.97
2019-06-26T03:51:00.434Z,16.73
2019-06-26T03:53:30.774Z,18.00
2019-06-26T03:56:00.673Z,16.13
2019-06-26T03:58:31.355Z,17.63
2019-06-26T04:01:03.451Z,17.63
2019-06-26T04:03:33.840Z,18.17
2019-06-26T04:06:05.496Z,17.13
2019-06-26T04:08:35.576Z,16.33
2019-06-26T04:11:06.074Z,17.40
2019-06-26T04:13:36.109Z,17.27
2019-06-26T04:16:07.802Z,17.53
2019-06-26T04:18:37.795Z,17.57
2019-06-26T04:21:09.647Z,16.63
2019-06-26T04:23:39.504Z,16.17
2019-06-26T04:26:09.471Z,16.40
2019-06-26T04:28:39.537Z,18.43
2019-06-26T04:31:13.186Z,17.80
2019-06-26T04:33:43.122Z,17.80
2019-06-26T04:36:14.893Z,18.03
2019-06-26T04:38:45.065Z,18.23
2019-06-26T04:41:15.650Z,18.80
2019-06-26T04:43:47.497Z,18.63
2019-06-26T04:46:25.728Z,18.03
2019-06-26T04:48:57.376Z,17.30
2019-06-26T04:51:26.268Z,16.60
2019-06-26T04:53:56.961Z,16.83
2019-06-26T04:56:26.629Z,16.47
2019-06-26T04:58:57.395Z,16.63
2019-06-26T05:01:27.188Z,17.30
2019-06-26T05:03:57.140Z,16.50
2019-06-26T05:06:28.827Z,17.13
2019-06-26T05:08:58.790Z,17.47
2019-06-26T05:11:28.785Z,17.03
2019-06-26T05:13:59.578Z,17.77
2019-06-26T05:16:29.271Z,16.50
2019-06-26T05:19:00.060Z,16.03
2019-06-26T05:21:29.952Z,16.97
2019-06-26T05:24:00.547Z,15.20
2019-06-26T05:26:31.135Z,16.77
2019-06-26T05:29:01.705Z,16.07
2019-06-26T05:31:31.522Z,16.27
2019-06-26T05:34:02.383Z,15.80
2019-06-26T05:36:32.032Z,16.60
2019-06-26T05:39:02.650Z,16.83
2019-06-26T05:41:32.731Z,15.60
2019-06-26T05:44:02.659Z,17.37
2019-06-26T05:46:32.479Z,15.97
2019-06-26T05:49:03.121Z,16.27
2019-06-26T05:51:33.086Z,14.50
2019-06-26T05:54:04.998Z,17.43
2019-06-26T05:56:36.877Z,16.10
2019-06-26T05:59:07.614Z,15.80
2019-06-26T06:01:38.166Z,15.73
2019-06-26T06:04:07.778Z,14.80
2019-06-26T06:06:41.468Z,16.23
2019-06-26T06:09:07.382Z,14.93
2019-06-26T06:11:37.251Z,15.60
2019-06-26T06:14:09.945Z,15.10
2019-06-26T06:16:47.309Z,15.50
2019-06-26T06:19:11.904Z,14.07
2019-06-26T06:21:42.569Z,15.17
2019-06-26T06:24:13.190Z,14.70
2019-06-26T06:26:43.959Z,14.53
2019-06-26T06:29:14.048Z,15.50
2019-06-26T06:31:44.668Z,15.10
2019-06-26T06:34:15.389Z,15.33
2019-06-26T06:36:45.925Z,14.83
2019-06-26T06:39:15.548Z,13.57
2019-06-26T06:41:45.510Z,14.53
2019-06-26T06:44:15.707Z,13.70
2019-06-26T06:46:59.483Z,15.27
2019-06-26T06:49:16.139Z,12.93
2019-06-26T06:51:46.151Z,12.67
2019-06-26T06:54:16.823Z,11.63
2019-06-26T06:56:48.629Z,11.93
2019-06-26T06:59:20.582Z,11.27
2019-06-26T07:01:50.926Z,10.50
2019-06-26T07:04:19.167Z,10.97
2019-06-26T07:06:49.411Z,10.10
2019-06-26T07:09:17.889Z,9.63
2019-06-26T07:11:46.335Z,9.40
2019-06-26T07:14:14.835Z,9.65
2019-06-26T07:16:43.297Z,10.10
2019-06-26T07:19:14.409Z,9.10
2019-06-26T07:21:42.880Z,9.45
2019-06-26T07:24:12.461Z,9.55
2019-06-26T07:26:40.918Z,9.00
2019-06-26T07:29:09.410Z,9.50
2019-06-26T07:31:39.741Z,9.55
2019-06-26T07:34:10.808Z,8.93
2019-06-26T07:36:40.975Z,9.90
2019-06-26T07:39:09.785Z,10.00
2019-06-26T07:41:40.487Z,10.25
2019-06-26T07:44:11.228Z,9.35
2019-06-26T07:46:41.649Z,9.05
2019-06-26T07:49:11.493Z,10.05
2019-06-26T07:51:40.022Z,9.30
2019-06-26T07:54:08.888Z,9.40
2019-06-26T07:56:37.338Z,9.53
2019-06-26T07:59:08.551Z,8.90
2019-06-26T08:01:38.202Z,9.90
2019-06-26T08:04:07.769Z,9.90
2019-06-26T08:06:36.256Z,9.85
2019-06-26T08:09:07.405Z,10.35
2019-06-26T08:11:38.983Z,9.15
2019-06-26T08:14:07.485Z,10.53
2019-06-26T08:16:35.945Z,10.43
2019-06-26T08:19:04.407Z,9.95
2019-06-26T08:21:32.889Z,9.53
2019-06-26T08:24:01.339Z,9.70
2019-06-26T08:26:29.825Z,9.73
2019-06-26T08:28:59.423Z,9.35
2019-06-26T08:31:27.871Z,9.50
2019-06-26T08:33:58.531Z,9.10
2019-06-26T08:36:27.042Z,9.33
2019-06-26T08:38:57.446Z,8.90
2019-06-26T08:41:25.592Z,8.55
2019-06-26T08:43:54.075Z,9.23
2019-06-26T08:46:22.547Z,10.00
2019-06-26T08:48:52.309Z,8.93
2019-06-26T08:51:22.859Z,8.95
2019-06-26T08:53:51.311Z,9.05
2019-06-26T08:56:19.804Z,9.03
2019-06-26T08:58:48.267Z,8.90
2019-06-26T09:01:16.772Z,8.53
2019-06-26T09:03:46.846Z,9.03
2019-06-26T09:06:15.403Z,8.53
2019-06-26T09:08:46.776Z,8.58
2019-06-26T09:11:18.307Z,9.00
2019-06-26T09:13:46.756Z,8.18
2019-06-26T09:16:15.196Z,8.88
2019-06-26T09:18:43.699Z,8.18
2019-06-26T09:21:14.019Z,7.95
2019-06-26T09:23:44.049Z,7.72
2019-06-26T09:26:12.536Z,8.18
2019-06-26T09:28:44.020Z,8.00
2019-06-26T09:31:14.379Z,7.55
2019-06-26T09:33:42.612Z,8.10
2019-06-26T09:36:11.065Z,7.37
2019-06-26T09:38:39.552Z,7.90
2019-06-26T09:41:07.999Z,7.47
2019-06-26T09:43:38.330Z,8.10
2019-06-26T09:46:08.155Z,8.33
2019-06-26T09:48:51.443Z,7.90
2019-06-26T09:51:06.711Z,8.23
2019-06-26T09:53:46.447Z,7.40
2019-06-26T09:56:05.291Z,7.92
2019-06-26T09:58:35.690Z,8.08
2019-06-26T10:01:06.600Z,8.10
2019-06-26T10:03:36.945Z,7.28
2019-06-26T10:06:05.152Z,7.87
2019-06-26T10:08:33.643Z,7.92
2019-06-26T10:11:04.007Z,8.68
2019-06-26T10:13:32.179Z,8.38
2019-06-26T10:16:02.509Z,7.30
2019-06-26T10:18:30.934Z,8.45
2019-06-26T10:20:59.392Z,7.55
2019-06-26T10:23:28.952Z,8.75
2019-06-26T10:26:01.484Z,8.68
2019-06-26T10:28:30.346Z,8.75
2019-06-26T10:31:00.219Z,8.93
2019-06-26T10:33:32.158Z,8.15
2019-06-26T10:36:02.736Z,8.70
2019-06-26T10:38:34.305Z,9.33
2019-06-26T10:41:04.180Z,8.87
2019-06-26T10:43:34.757Z,9.03
2019-06-26T10:46:05.163Z,9.40
2019-06-26T10:48:34.027Z,8.53
2019-06-26T10:51:05.825Z,8.30
2019-06-26T10:53:35.729Z,8.50
2019-06-26T10:56:06.028Z,9.67
2019-06-26T10:58:36.636Z,9.63
2019-06-26T11:01:05.485Z,9.20
2019-06-26T11:03:35.321Z,8.90
2019-06-26T11:06:05.649Z,9.07
2019-06-26T11:08:36.418Z,9.47
2019-06-26T11:11:05.040Z,9.53
2019-06-26T11:13:33.890Z,8.70
2019-06-26T11:16:03.762Z,8.70
2019-06-26T11:18:35.014Z,9.30
2019-06-26T11:21:06.840Z,9.80
2019-06-26T11:23:36.685Z,9.83
2019-06-26T11:26:05.567Z,9.63
2019-06-26T11:28:37.380Z,9.03
2019-06-26T11:31:07.244Z,7.60
2019-06-26T11:33:38.891Z,9.00
2019-06-26T11:36:10.605Z,8.53
2019-06-26T11:38:39.498Z,8.60
2019-06-26T11:41:10.249Z,7.70
2019-06-26T11:43:40.556Z,8.90
2019-06-26T11:46:12.452Z,8.70
2019-06-26T11:48:44.271Z,9.33
2019-06-26T11:51:13.119Z,9.20
2019-06-26T11:53:43.802Z,8.93
2019-06-26T11:56:15.168Z,9.20
2019-06-26T11:58:49.237Z,8.63
2019-06-26T12:01:18.142Z,9.20
2019-06-26T12:03:48.480Z,9.47
2019-06-26T12:06:19.397Z,9.20
2019-06-26T12:08:49.935Z,8.80
2019-06-26T12:11:21.746Z,8.43
2019-06-26T12:13:53.644Z,8.97
2019-06-26T12:16:23.610Z,9.03
2019-06-26T12:18:54.312Z,8.17
2019-06-26T12:21:24.078Z,9.10
2019-06-26T12:23:56.912Z,9.30
2019-06-26T12:26:28.389Z,8.37
2019-06-26T12:28:59.158Z,8.90
2019-06-26T12:31:28.916Z,8.20
2019-06-26T12:33:59.015Z,8.90
2019-06-26T12:36:29.832Z,9.40
2019-06-26T12:39:02.277Z,9.07
2019-06-26T12:41:33.660Z,8.60
2019-06-26T12:44:04.232Z,8.83
2019-06-26T12:46:37.647Z,8.90
2019-06-26T12:49:07.264Z,8.20
2019-06-26T12:51:37.184Z,8.60
2019-06-26T12:54:07.148Z,9.07
2019-06-26T12:56:37.792Z,8.15
2019-06-26T12:59:08.338Z,8.70
2019-06-26T13:01:39.054Z,8.00
2019-06-26T13:04:08.851Z,8.90
2019-06-26T13:06:39.388Z,9.13
2019-06-26T13:09:10.880Z,8.73
2019-06-26T13:11:41.421Z,7.60
2019-06-26T13:14:12.193Z,9.17
2019-06-26T13:16:42.092Z,9.10
2019-06-26T13:19:12.378Z,9.53
2019-06-26T13:21:43.112Z,8.47
2019-06-26T13:24:12.971Z,9.37
2019-06-26T13:26:43.600Z,8.90
2019-06-26T13:29:14.326Z,8.40
2019-06-26T13:31:44.671Z,9.43
2019-06-26T13:34:15.407Z,8.37
2019-06-26T13:36:45.002Z,8.20
2019-06-26T13:39:15.047Z,8.50
2019-06-26T13:41:44.963Z,8.93
2019-06-26T13:44:15.253Z,8.90
2019-06-26T13:46:45.187Z,8.50
2019-06-26T13:49:16.488Z,8.83
2019-06-26T13:51:45.531Z,8.83
2019-06-26T13:54:16.225Z,8.27
2019-06-26T13:56:46.791Z,8.60
2019-06-26T13:59:16.660Z,9.17
2019-06-26T14:01:45.516Z,8.80
2019-06-26T14:04:15.494Z,8.83
2019-06-26T14:06:47.063Z,8.73
2019-06-26T14:09:17.655Z,7.57
2019-06-26T14:11:48.324Z,8.53
2019-06-26T14:14:20.528Z,8.00
2019-06-26T14:16:48.464Z,8.10
2019-06-26T14:19:19.073Z,8.10
2019-06-26T14:21:49.672Z,7.47
2019-06-26T14:24:19.589Z,8.07
2019-06-26T14:26:50.362Z,8.13
2019-06-26T14:29:21.223Z,7.97
2019-06-26T14:31:52.442Z,7.60
2019-06-26T14:34:22.308Z,8.07
2019-06-26T14:36:53.050Z,8.63
2019-06-26T14:39:23.343Z,7.20
2019-06-26T14:41:55.048Z,7.23
2019-06-26T14:44:25.004Z,7.80
2019-06-26T14:46:56.772Z,7.77
2019-06-26T14:49:27.438Z,7.83
2019-06-26T14:51:59.060Z,8.07
2019-06-26T14:54:29.711Z,8.30
2019-06-26T14:56:59.889Z,7.33
2019-06-26T14:59:30.607Z,8.37
2019-06-26T15:02:01.251Z,8.20
2019-06-26T15:04:32.031Z,8.30
2019-06-26T15:07:04.510Z,9.17
2019-06-26T15:09:34.531Z,7.40
2019-06-26T15:12:05.225Z,7.33
2019-06-26T15:14:35.165Z,7.87
2019-06-26T15:17:05.033Z,8.70
2019-06-26T15:19:36.644Z,9.37
2019-06-26T15:22:05.497Z,8.03
2019-06-26T15:24:35.434Z,8.70
2019-06-26T15:27:06.826Z,8.60
2019-06-26T15:29:37.172Z,8.67
2019-06-26T15:32:07.838Z,8.07
2019-06-26T15:34:38.382Z,8.73
2019-06-26T15:37:10.172Z,7.80
2019-06-26T15:39:40.966Z,8.43
2019-06-26T15:42:11.335Z,8.07
2019-06-26T15:44:41.176Z,8.40
2019-06-26T15:47:11.118Z,7.67
2019-06-26T15:49:43.012Z,8.50
2019-06-26T15:52:15.383Z,8.10
2019-06-26T15:54:44.372Z,8.70
2019-06-26T15:57:14.713Z,7.90
2019-06-26T15:59:46.362Z,8.30
2019-06-26T16:02:15.286Z,8.40
2019-06-26T16:04:45.168Z,8.47
2019-06-26T16:07:14.052Z,7.80
2019-06-26T16:09:42.888Z,7.60
2019-06-26T16:12:11.778Z,8.23
2019-06-26T16:14:43.406Z,7.90
2019-06-26T16:17:33.407Z,8.97
2019-06-26T16:20:04.174Z,7.73
2019-06-26T16:22:35.966Z,8.57
2019-06-26T16:25:06.306Z,8.37
2019-06-26T16:31:05.143Z,8.40
2019-06-26T16:33:41.343Z,8.90
2019-06-26T16:36:10.269Z,8.63
2019-06-26T16:38:40.127Z,7.97
2019-06-26T16:41:09.684Z,8.57
2019-06-26T16:43:41.933Z,7.47
2019-06-26T16:46:14.896Z,8.50
2019-06-26T16:48:45.532Z,8.00
2019-06-26T16:51:15.584Z,8.47
2019-06-26T16:53:45.549Z,7.90
2019-06-26T16:56:17.488Z,8.37
2019-06-26T16:58:46.378Z,8.17
2019-06-26T17:01:16.198Z,8.97
2019-06-26T17:03:47.872Z,8.97
2019-06-26T17:06:17.828Z,8.63
2019-06-26T17:08:48.403Z,7.80
2019-06-26T17:11:20.180Z,8.83
2019-06-26T17:13:50.077Z,8.00
2019-06-26T17:16:20.733Z,8.07
2019-06-26T17:18:50.576Z,8.73
2019-06-26T17:21:46.591Z,7.63
2019-06-26T17:24:15.087Z,8.00
2019-06-26T17:26:43.971Z,8.23
2019-06-26T17:29:12.926Z,8.70
2019-06-26T17:31:41.809Z,8.07
2019-06-26T17:34:10.693Z,8.50
2019-06-26T17:36:39.540Z,8.90
2019-06-26T17:39:08.416Z,7.67
2019-06-26T17:41:39.032Z,7.40
2019-06-26T17:44:09.792Z,8.43
2019-06-26T17:46:38.462Z,8.57
2019-06-26T17:49:11.564Z,8.60
2019-06-26T17:51:41.408Z,9.13
2019-06-26T17:54:14.416Z,9.33
2019-06-26T17:56:46.037Z,8.50
2019-06-26T17:59:14.890Z,8.40
2019-06-26T18:01:43.790Z,8.83
2019-06-26T18:04:12.617Z,9.23
2019-06-26T18:06:41.475Z,8.60
2019-06-26T18:09:12.349Z,9.20
2019-06-26T18:11:59.547Z,9.17
2019-06-26T18:14:28.418Z,9.10
2019-06-26T18:18:10.131Z,9.03
2019-06-26T18:20:39.177Z,8.90
2019-06-26T18:23:08.197Z,8.83
2019-06-26T18:25:37.066Z,9.30
2019-06-26T18:28:05.954Z,9.03
2019-06-26T18:30:34.801Z,9.53
2019-06-26T18:33:03.684Z,12.73
2019-06-26T18:35:32.536Z,15.57
2019-06-26T18:38:04.429Z,15.30
2019-06-26T18:40:33.322Z,14.50
2019-06-26T18:43:02.173Z,13.43
2019-06-26T18:45:31.030Z,13.17
2019-06-26T18:47:59.924Z,13.87
2019-06-26T18:50:28.792Z,11.33
2019-06-26T18:52:57.636Z,11.00
2019-06-26T18:55:26.539Z,10.07
2019-06-26T18:57:55.388Z,9.80
2019-06-26T19:00:24.232Z,9.27
2019-06-26T19:02:53.124Z,9.40
2019-06-26T19:05:21.977Z,9.20
2019-06-26T19:07:50.820Z,10.00
2019-06-26T19:10:20.115Z,9.27
2019-06-26T19:12:48.957Z,8.73
2019-06-26T19:15:18.001Z,9.57
2019-06-26T19:17:46.892Z,10.47
2019-06-26T19:20:15.748Z,10.00
2019-06-26T19:22:47.443Z,9.10
2019-06-26T19:25:15.520Z,10.20
2019-06-26T19:27:44.401Z,9.37
2019-06-26T19:30:13.416Z,9.23
2019-06-26T19:32:42.313Z,10.03
2019-06-26T19:35:19.520Z,10.87
2019-06-26T19:37:42.915Z,10.43
2019-06-26T19:40:13.011Z,10.30
2019-06-26T19:42:48.220Z,9.83
2019-06-26T19:45:17.699Z,9.90
2019-06-26T19:47:49.253Z,11.20
2019-06-26T19:50:23.157Z,10.80
2019-06-26T19:52:49.473Z,10.97
2019-06-26T19:55:18.426Z,10.67
2019-06-26T19:57:47.273Z,11.20
2019-06-26T20:00:17.569Z,10.33
2019-06-26T20:02:46.440Z,10.67
2019-06-26T20:05:15.278Z,10.27
2019-06-26T20:07:44.264Z,10.73
2019-06-26T20:10:14.926Z,11.63
2019-06-26T20:12:43.850Z,11.80
2019-06-26T20:15:12.844Z,11.77
2019-06-26T20:17:41.694Z,11.63
2019-06-26T20:20:11.005Z,11.07
2019-06-26T20:22:39.880Z,11.40
2019-06-26T20:25:09.642Z,12.63
2019-06-26T20:27:38.753Z,10.80
2019-06-26T20:30:10.105Z,10.93
2019-06-26T20:32:39.192Z,11.80
2019-06-26T20:35:08.146Z,10.70
2019-06-26T20:37:37.044Z,10.60
2019-06-26T20:40:07.599Z,10.63
2019-06-26T20:42:36.447Z,11.57
2019-06-26T20:45:06.835Z,11.87
2019-06-26T20:47:35.789Z,11.60
2019-06-26T20:50:06.551Z,12.23
2019-06-26T20:52:37.952Z,11.57
2019-06-26T20:55:07.403Z,10.90
2019-06-26T20:57:36.327Z,13.13
2019-06-26T21:00:06.959Z,11.60
2019-06-26T21:02:35.942Z,12.57
2019-06-26T21:05:06.964Z,12.07
2019-06-26T21:07:41.883Z,12.20
2019-06-26T21:10:12.179Z,13.07
2019-06-26T21:12:42.147Z,12.87
2019-06-26T21:15:13.775Z,11.73
2019-06-26T21:17:47.520Z,13.07
2019-06-26T21:20:20.835Z,12.37
2019-06-26T21:22:51.552Z,13.23
2019-06-26T21:25:21.195Z,12.20
2019-06-26T21:27:51.941Z,12.20
2019-06-26T21:30:26.807Z,12.57
2019-06-26T21:32:57.425Z,12.00
2019-06-26T21:35:27.343Z,12.53
2019-06-26T21:37:57.907Z,12.63
2019-06-26T21:40:28.599Z,12.77
2019-06-26T21:42:59.342Z,12.80
2019-06-26T21:45:29.032Z,12.47
2019-06-26T21:47:59.058Z,12.23
2019-06-26T21:50:29.675Z,12.67
2019-06-26T21:53:00.270Z,12.70
2019-06-26T21:55:34.347Z,12.73
2019-06-26T21:58:00.825Z,12.70
2019-06-26T22:00:32.748Z,12.47
2019-06-26T22:03:04.957Z,12.00
2019-06-26T22:05:35.450Z,12.77
2019-06-26T22:08:06.884Z,12.13
2019-06-26T22:10:38.737Z,11.53
2019-06-26T22:13:08.527Z,11.67
2019-06-26T22:15:40.420Z,11.50
2019-06-26T22:18:11.976Z,11.47
2019-06-26T22:20:42.557Z,11.30
2019-06-26T22:23:12.972Z,11.13
2019-06-26T22:25:50.751Z,10.87
2019-06-26T22:28:14.181Z,12.10
2019-06-26T22:30:44.316Z,11.67
2019-06-26T22:33:13.173Z,11.40
2019-06-26T22:35:43.497Z,11.17
2019-06-26T22:38:13.554Z,10.63
2019-06-26T22:40:43.569Z,11.03
2019-06-26T22:43:13.464Z,11.40
2019-06-26T22:45:42.332Z,11.10
2019-06-26T22:48:12.272Z,11.50
2019-06-26T22:50:42.992Z,12.30
2019-06-26T22:53:12.835Z,10.53
2019-06-26T22:55:43.197Z,11.27
2019-06-26T22:58:13.043Z,10.40
2019-06-26T23:00:43.062Z,11.37
2019-06-26T23:03:13.080Z,11.13
2019-06-26T23:05:43.723Z,10.13
2019-06-26T23:08:14.336Z,9.37
2019-06-26T23:10:44.237Z,10.80
2019-06-26T23:13:14.102Z,10.43
2019-06-26T23:15:44.145Z,9.30
2019-06-26T23:18:14.235Z,10.50
2019-06-26T23:20:44.077Z,10.20
2019-06-26T23:23:14.168Z,9.57
2019-06-26T23:25:44.165Z,10.10
2019-06-26T23:28:14.855Z,10.70
2019-06-26T23:30:45.419Z,9.60
2019-06-26T23:33:15.388Z,10.40
2019-06-26T23:35:45.404Z,10.00
2019-06-26T23:38:15.323Z,9.30
2019-06-26T23:40:45.942Z,8.87
2019-06-26T23:43:14.785Z,9.03
2019-06-26T23:45:46.448Z,9.33
2019-06-26T23:48:16.443Z,9.43
2019-06-26T23:50:46.488Z,9.70
2019-06-26T23:53:15.469Z,8.37
2019-06-26T23:55:47.871Z,9.80
2019-06-26T23:58:16.745Z,8.53
